Bennion, Utah
Current Conditions -  °F | °C
As of 7:53 AM on Friday 31 Oct 2014 (Local Time) from KSLC Reporting Station
Broken Clouds Broken Clouds  
Wind Chill: 57°   Ceiling: 22000
Heat Index: 57°   Visibility: 10mi
Dew Point: 23°   Wind: 18mph
Humidity: 27%   Direction: 140°SE
Pressure: 29.99"   Gusts: NA
Location:  40.6511°N, 112.018°W
Report Text: KSLC 311353Z 14016KT 10SM SCT190 BKN220 14/M05 A2999 RMK AO2 SLP131 ACSL DSNT E-SE AND SW T01391050
Loading
Personal Weather Stations






























Interactive Weather Map
Tropical Storm Tracking
New forecast layout! Learn more

10-Day Weather Forecast

Advertisements
Track Severe Weather on mobile